createdAt,value
2019-02-09T00:00:45.363Z,2.37
2019-02-09T00:03:22.573Z,2.00
2019-02-09T00:05:46.783Z,2.10
2019-02-09T00:08:15.216Z,2.63
2019-02-09T00:10:43.619Z,2.43
2019-02-09T00:13:16.437Z,2.37
2019-02-09T00:15:42.314Z,2.40
2019-02-09T00:18:10.706Z,2.07
2019-02-09T00:20:39.361Z,2.20
2019-02-09T00:23:08.284Z,2.03
2019-02-09T00:25:36.709Z,2.43
2019-02-09T00:28:08.131Z,2.40
2019-02-09T00:30:36.553Z,2.00
2019-02-09T00:33:05.300Z,2.07
2019-02-09T00:35:33.860Z,2.17
2019-02-09T00:38:02.329Z,2.40
2019-02-09T00:40:30.888Z,2.07
2019-02-09T00:42:59.375Z,2.27
2019-02-09T00:45:28.168Z,2.40
2019-02-09T00:47:56.724Z,2.17
2019-02-09T00:50:25.332Z,2.27
2019-02-09T00:52:56.295Z,2.00
2019-02-09T00:55:25.844Z,2.17
2019-02-09T00:57:54.700Z,2.27
2019-02-09T01:00:28.891Z,2.10
2019-02-09T01:02:58.973Z,2.33
2019-02-09T01:05:41.436Z,2.10
2019-02-09T01:08:09.999Z,2.40
2019-02-09T01:10:38.477Z,1.90
2019-02-09T01:13:06.960Z,2.20
2019-02-09T01:15:35.380Z,2.27
2019-02-09T01:18:04.264Z,2.40
2019-02-09T01:20:32.679Z,2.63
2019-02-09T01:23:01.516Z,2.00
2019-02-09T01:25:29.931Z,2.50
2019-02-09T01:27:58.324Z,2.10
2019-02-09T01:30:28.398Z,1.93
2019-02-09T01:32:57.229Z,1.90
2019-02-09T01:35:26.175Z,2.07
2019-02-09T01:37:54.659Z,2.13
2019-02-09T01:40:25.470Z,2.10
2019-02-09T01:42:54.038Z,2.27
2019-02-09T01:45:27.032Z,2.27
2019-02-09T01:47:55.492Z,2.50
2019-02-09T01:50:25.433Z,2.33
2019-02-09T01:52:57.365Z,2.73
2019-02-09T01:55:26.774Z,2.70
2019-02-09T01:57:55.278Z,2.30
2019-02-09T02:00:26.514Z,2.53
2019-02-09T02:02:55.003Z,1.83
2019-02-09T02:05:24.639Z,2.30
2019-02-09T02:07:53.509Z,1.90
2019-02-09T02:10:27.569Z,1.93
2019-02-09T02:12:56.216Z,1.93
2019-02-09T02:15:25.452Z,2.17
2019-02-09T02:17:53.867Z,2.47
2019-02-09T02:20:26.772Z,2.47
2019-02-09T02:22:55.240Z,1.90
2019-02-09T02:25:23.795Z,2.20
2019-02-09T02:27:55.203Z,2.20
2019-02-09T02:30:37.674Z,2.50
2019-02-09T02:33:07.424Z,2.10
2019-02-09T02:35:39.127Z,2.33
2019-02-09T02:38:07.555Z,2.33
2019-02-09T02:40:36.234Z,2.17
2019-02-09T02:43:05.345Z,2.50
2019-02-09T02:45:33.763Z,2.63
2019-02-09T02:48:02.244Z,2.57
2019-02-09T02:50:30.666Z,2.47
2019-02-09T02:52:59.075Z,2.53
2019-02-09T02:55:32.593Z,2.07
2019-02-09T02:58:01.078Z,2.23
2019-02-09T03:00:35.770Z,2.27
2019-02-09T03:03:04.280Z,2.10
2019-02-09T03:05:32.931Z,2.50
2019-02-09T03:08:01.476Z,2.17
2019-02-09T03:10:30.101Z,2.73
2019-02-09T03:12:58.776Z,2.20
2019-02-09T03:15:32.425Z,2.20
2019-02-09T03:18:02.380Z,2.43
2019-02-09T03:20:31.101Z,2.37
2019-02-09T03:22:59.753Z,2.20
2019-02-09T03:25:30.192Z,2.33
2019-02-09T03:27:58.589Z,2.50
2019-02-09T03:30:27.074Z,2.00
2019-02-09T03:32:55.764Z,1.93
2019-02-09T03:35:24.536Z,1.97
2019-02-09T03:37:53.221Z,2.50
2019-02-09T03:40:26.424Z,2.80
2019-02-09T03:42:54.973Z,2.53
2019-02-09T03:45:28.549Z,2.57
2019-02-09T03:47:57.039Z,2.23
2019-02-09T03:50:27.473Z,2.47
2019-02-09T03:52:56.165Z,2.73
2019-02-09T03:55:24.660Z,2.43
2019-02-09T03:57:53.058Z,2.53
2019-02-09T04:00:26.413Z,2.17
2019-02-09T04:02:54.953Z,2.50
2019-02-09T04:05:23.522Z,2.00
2019-02-09T04:07:52.291Z,2.13
2019-02-09T04:10:22.663Z,2.20
2019-02-09T04:12:51.264Z,2.30
2019-02-09T04:15:22.291Z,2.20
2019-02-09T04:17:51.366Z,2.00
2019-02-09T04:20:21.328Z,1.80
2019-02-09T04:22:49.968Z,2.10
2019-02-09T04:25:19.898Z,2.30
2019-02-09T04:27:48.308Z,2.20
2019-02-09T04:30:22.201Z,2.20
2019-02-09T04:32:50.615Z,2.10
2019-02-09T04:35:19.338Z,2.43
2019-02-09T04:37:47.766Z,2.00
2019-02-09T04:40:21.492Z,2.00
2019-02-09T04:42:49.997Z,2.67
2019-02-09T04:45:19.462Z,2.00
2019-02-09T04:47:47.856Z,2.27
2019-02-09T04:50:17.440Z,1.77
2019-02-09T04:52:45.865Z,2.10
2019-02-09T04:55:21.693Z,2.20
2019-02-09T04:57:50.174Z,1.90
2019-02-09T05:00:20.607Z,2.10
2019-02-09T05:02:49.339Z,2.20
2019-02-09T05:05:17.731Z,2.07
2019-02-09T05:07:46.171Z,1.80
2019-02-09T05:10:16.698Z,2.10
2019-02-09T05:12:45.134Z,2.20
2019-02-09T05:15:15.930Z,1.87
2019-02-09T05:17:44.500Z,2.10
2019-02-09T05:20:15.071Z,2.50
2019-02-09T05:22:43.744Z,2.30
2019-02-09T05:25:13.704Z,2.20
2019-02-09T05:27:42.172Z,2.23
2019-02-09T05:30:19.168Z,2.20
2019-02-09T05:32:47.662Z,2.13
2019-02-09T05:35:16.497Z,2.07
2019-02-09T05:37:44.920Z,2.40
2019-02-09T05:40:18.565Z,2.10
2019-02-09T05:42:47.118Z,2.07
2019-02-09T05:45:20.750Z,2.73
2019-02-09T05:47:49.421Z,2.47
2019-02-09T05:50:19.580Z,2.53
2019-02-09T05:52:48.056Z,2.30
2019-02-09T05:55:17.766Z,2.87
2019-02-09T05:57:46.334Z,2.63
2019-02-09T06:00:41.631Z,2.60
2019-02-09T06:03:11.928Z,3.00
2019-02-09T06:05:40.321Z,3.03
2019-02-09T06:08:08.754Z,2.67
2019-02-09T06:10:37.153Z,2.93
2019-02-09T06:13:05.616Z,2.70
2019-02-09T06:15:34.059Z,3.10
2019-02-09T06:18:02.504Z,2.70
2019-02-09T06:20:31.276Z,2.90
2019-02-09T06:22:59.839Z,2.57
2019-02-09T06:25:28.345Z,3.07
2019-02-09T06:27:57.185Z,2.63
2019-02-09T06:30:27.244Z,2.33
2019-02-09T06:32:58.589Z,2.47
2019-02-09T06:35:27.126Z,2.47
2019-02-09T06:37:55.669Z,2.37
2019-02-09T06:40:24.734Z,2.20
2019-02-09T06:42:53.226Z,2.17
2019-02-09T06:45:28.204Z,1.50
2019-02-09T06:48:16.418Z,1.77
2019-02-09T06:50:44.827Z,1.70
2019-02-09T06:53:13.488Z,1.67
2019-02-09T06:55:41.884Z,2.20
2019-02-09T06:58:10.301Z,2.27
2019-02-09T07:00:38.694Z,2.10
2019-02-09T07:03:07.160Z,3.30
2019-02-09T07:05:35.577Z,2.60
2019-02-09T07:08:04.141Z,2.50
2019-02-09T07:10:32.558Z,2.93
2019-02-09T07:13:00.956Z,2.70
2019-02-09T07:15:31.483Z,3.70
2019-02-09T07:17:59.883Z,4.00
2019-02-09T07:20:28.303Z,3.37
2019-02-09T07:22:56.702Z,3.73
2019-02-09T07:25:25.563Z,3.53
2019-02-09T07:27:53.980Z,4.40
2019-02-09T07:30:24.886Z,3.77
2019-02-09T07:32:53.677Z,3.03
2019-02-09T07:35:22.205Z,3.57
2019-02-09T07:37:50.789Z,3.23
2019-02-09T07:40:21.626Z,3.00
2019-02-09T07:42:50.031Z,3.07
2019-02-09T07:45:30.300Z,3.07
2019-02-09T07:47:58.719Z,2.63
2019-02-09T07:50:28.293Z,2.90
2019-02-09T07:52:56.757Z,2.90
2019-02-09T07:55:25.412Z,2.83
2019-02-09T07:57:53.908Z,2.90
2019-02-09T08:00:33.223Z,2.20
2019-02-09T08:03:01.716Z,2.50
2019-02-09T08:05:31.248Z,2.47
2019-02-09T08:07:59.816Z,2.97
2019-02-09T08:10:31.296Z,2.67
2019-02-09T08:13:00.323Z,2.17
2019-02-09T08:15:30.682Z,2.73
2019-02-09T08:17:59.240Z,1.70
2019-02-09T08:20:29.304Z,2.30
2019-02-09T08:22:59.536Z,2.20
2019-02-09T08:25:30.247Z,2.10
2019-02-09T08:27:59.187Z,2.07
2019-02-09T08:30:30.442Z,2.27
2019-02-09T08:32:59.201Z,2.53
2019-02-09T08:35:27.628Z,2.23
2019-02-09T08:37:56.466Z,2.90
2019-02-09T08:40:24.865Z,2.50
2019-02-09T08:42:53.292Z,2.80
2019-02-09T08:45:23.775Z,2.27
2019-02-09T08:47:52.324Z,2.60
2019-02-09T08:50:26.251Z,2.30
2019-02-09T08:52:54.685Z,2.87
2019-02-09T08:55:23.463Z,2.17
2019-02-09T08:57:52.410Z,2.80
2019-02-09T09:00:29.913Z,2.73
2019-02-09T09:02:58.300Z,2.83
2019-02-09T09:05:27.254Z,2.00
2019-02-09T09:07:55.678Z,2.77
2019-02-09T09:10:27.505Z,3.27
2019-02-09T09:12:56.372Z,2.70
2019-02-09T09:15:43.830Z,2.93
2019-02-09T09:18:12.231Z,2.73
2019-02-09T09:20:43.711Z,2.90
2019-02-09T09:23:12.123Z,2.70
2019-02-09T09:25:40.716Z,2.80
2019-02-09T09:28:09.200Z,3.00
2019-02-09T09:30:37.612Z,3.07
2019-02-09T09:33:06.276Z,2.90
2019-02-09T09:35:34.803Z,2.97
2019-02-09T09:38:03.512Z,2.30
2019-02-09T09:40:42.480Z,2.50
2019-02-09T09:43:12.898Z,3.13
2019-02-09T09:45:43.117Z,3.00
2019-02-09T09:48:14.335Z,3.80
2019-02-09T09:50:42.808Z,1.60
2019-02-09T09:53:11.395Z,3.40
2019-02-09T09:55:41.352Z,3.03
2019-02-09T09:58:10.097Z,2.77
2019-02-09T10:00:40.355Z,3.17
2019-02-09T10:03:08.752Z,2.57
2019-02-09T10:05:39.913Z,3.13
2019-02-09T10:08:10.775Z,3.20
2019-02-09T10:10:45.048Z,2.90
2019-02-09T10:13:15.100Z,3.10
2019-02-09T10:15:50.124Z,2.93
2019-02-09T10:18:20.861Z,2.97
2019-02-09T10:20:49.409Z,2.77
2019-02-09T10:23:18.341Z,2.90
2019-02-09T10:25:47.056Z,2.70
2019-02-09T10:28:17.419Z,2.90
2019-02-09T10:30:45.920Z,2.10
2019-02-09T10:33:14.353Z,3.30
2019-02-09T10:35:42.768Z,3.57
2019-02-09T10:38:12.969Z,3.33
2019-02-09T10:40:47.343Z,3.17
2019-02-09T10:43:15.836Z,3.17
2019-02-09T10:45:45.632Z,3.40
2019-02-09T10:48:14.375Z,3.30
2019-02-09T10:50:45.049Z,2.93
2019-02-09T10:53:13.600Z,3.37
2019-02-09T10:55:42.307Z,2.93
2019-02-09T10:58:11.032Z,4.13
2019-02-09T11:00:47.881Z,3.70
2019-02-09T11:03:19.590Z,3.13
2019-02-09T11:05:49.609Z,2.97
2019-02-09T11:08:18.146Z,3.37
2019-02-09T11:10:46.625Z,3.20
2019-02-09T11:13:15.060Z,3.53
2019-02-09T11:15:43.810Z,3.27
2019-02-09T11:18:12.366Z,3.10
2019-02-09T11:20:40.806Z,2.87
2019-02-09T11:23:09.419Z,3.40
2019-02-09T11:25:42.151Z,3.73
2019-02-09T11:28:10.700Z,3.50
2019-02-09T11:30:39.348Z,3.40
2019-02-09T11:33:09.383Z,3.83
2019-02-09T11:35:37.873Z,3.60
2019-02-09T11:38:06.476Z,3.40
2019-02-09T11:40:35.493Z,4.10
2019-02-09T11:43:05.590Z,3.50
2019-02-09T11:45:35.938Z,4.33
2019-02-09T11:48:07.492Z,4.47
2019-02-09T11:50:35.997Z,4.57
2019-02-09T11:53:05.327Z,4.30
2019-02-09T11:55:33.763Z,4.10
2019-02-09T11:58:02.367Z,3.50
2019-02-09T12:00:43.093Z,4.07
2019-02-09T12:03:15.082Z,3.93
2019-02-09T12:05:41.649Z,4.30
2019-02-09T12:08:10.433Z,4.20
2019-02-09T12:10:40.895Z,4.00
2019-02-09T12:13:09.201Z,4.27
2019-02-09T12:15:38.414Z,4.10
2019-02-09T12:18:16.293Z,4.60
2019-02-09T12:20:44.788Z,3.50
2019-02-09T12:23:14.789Z,4.77
2019-02-09T12:25:43.277Z,4.27
2019-02-09T12:28:12.742Z,4.00
2019-02-09T12:30:41.612Z,3.83
2019-02-09T12:33:11.192Z,4.27
2019-02-09T12:35:39.803Z,4.50
2019-02-09T12:38:09.715Z,4.80
2019-02-09T12:40:38.594Z,4.23
2019-02-09T12:43:07.245Z,3.87
2019-02-09T12:45:41.951Z,4.23
2019-02-09T12:48:11.665Z,3.60
2019-02-09T12:50:40.339Z,3.40
2019-02-09T12:53:08.852Z,3.53
2019-02-09T12:55:37.513Z,3.37
2019-02-09T12:58:06.459Z,4.00
2019-02-09T13:00:39.133Z,3.93
2019-02-09T13:03:30.929Z,4.03
2019-02-09T13:05:55.317Z,4.00
2019-02-09T13:08:23.764Z,3.70
2019-02-09T13:10:52.160Z,3.20
2019-02-09T13:13:20.587Z,4.37
2019-02-09T13:15:48.989Z,3.60
2019-02-09T13:18:17.412Z,3.17
2019-02-09T13:20:45.844Z,3.30
2019-02-09T13:23:14.305Z,3.57
2019-02-09T13:25:42.717Z,3.63
2019-02-09T13:28:11.462Z,3.80
2019-02-09T13:30:41.718Z,3.87
2019-02-09T13:33:10.217Z,3.30
2019-02-09T13:35:38.644Z,3.27
2019-02-09T13:38:07.213Z,3.60
2019-02-09T13:40:35.679Z,3.40
2019-02-09T13:43:04.454Z,3.50
2019-02-09T13:45:47.645Z,3.67
2019-02-09T13:48:16.044Z,3.30
2019-02-09T13:50:44.609Z,3.43
2019-02-09T13:53:13.099Z,4.03
2019-02-09T13:55:42.069Z,3.50
2019-02-09T13:58:10.491Z,3.33
2019-02-09T14:00:39.052Z,3.03
2019-02-09T14:03:08.023Z,3.33
2019-02-09T14:05:36.590Z,3.13
2019-02-09T14:08:05.750Z,3.10
2019-02-09T14:10:34.156Z,3.63
2019-02-09T14:13:02.618Z,3.97
2019-02-09T14:15:34.148Z,3.97
2019-02-09T14:18:04.472Z,3.37
2019-02-09T14:20:33.035Z,3.57
2019-02-09T14:23:01.632Z,3.63
2019-02-09T14:25:30.396Z,3.00
2019-02-09T14:28:00.136Z,3.60
2019-02-09T14:30:30.803Z,2.80
2019-02-09T14:32:59.780Z,2.70
2019-02-09T14:35:30.029Z,2.73
2019-02-09T14:37:58.627Z,2.83
2019-02-09T14:40:32.080Z,2.30
2019-02-09T14:43:04.283Z,2.23
2019-02-09T14:45:34.947Z,2.70
2019-02-09T14:48:03.416Z,2.67
2019-02-09T14:50:33.247Z,3.10
2019-02-09T14:53:01.800Z,4.13
2019-02-09T14:55:35.828Z,4.27
2019-02-09T14:58:04.705Z,3.63
2019-02-09T15:00:36.170Z,3.67
2019-02-09T15:03:06.604Z,3.33
2019-02-09T15:05:35.267Z,2.97
2019-02-09T15:08:04.349Z,3.20
2019-02-09T15:10:32.785Z,3.63
2019-02-09T15:13:01.240Z,2.97
2019-02-09T15:15:32.561Z,3.10
2019-02-09T15:18:01.379Z,2.93
2019-02-09T15:20:44.409Z,3.40
2019-02-09T15:23:13.093Z,2.57
2019-02-09T15:25:44.195Z,3.17
2019-02-09T15:28:12.862Z,3.37
2019-02-09T15:30:43.898Z,3.77
2019-02-09T15:33:12.380Z,3.50
2019-02-09T15:35:41.076Z,3.63
2019-02-09T15:38:09.518Z,3.60
2019-02-09T15:40:37.974Z,3.27
2019-02-09T15:43:06.689Z,3.60
2019-02-09T15:45:35.110Z,3.23
2019-02-09T15:48:04.076Z,3.13
2019-02-09T15:50:35.128Z,3.90
2019-02-09T15:53:03.778Z,3.70
2019-02-09T15:55:32.289Z,3.77
2019-02-09T15:58:00.700Z,3.10
2019-02-09T16:00:30.340Z,4.20
2019-02-09T16:03:00.073Z,4.07
2019-02-09T16:05:28.680Z,6.97
2019-02-09T16:07:57.140Z,4.20
2019-02-09T16:10:25.771Z,4.80
2019-02-09T16:12:54.233Z,3.63
2019-02-09T16:15:27.521Z,3.93
2019-02-09T16:17:56.149Z,4.23
2019-02-09T16:20:26.236Z,3.97
2019-02-09T16:22:54.662Z,4.10
2019-02-09T16:25:23.694Z,4.00
2019-02-09T16:27:52.232Z,3.90
2019-02-09T16:30:28.483Z,3.93
2019-02-09T16:32:56.979Z,4.47
2019-02-09T16:35:30.360Z,3.77
2019-02-09T16:37:58.854Z,3.43
2019-02-09T16:40:29.860Z,3.93
2019-02-09T16:42:58.256Z,8.50
2019-02-09T16:45:36.799Z,4.20
2019-02-09T16:48:09.660Z,4.00
2019-02-09T16:50:38.067Z,3.63
2019-02-09T16:53:07.072Z,4.07
2019-02-09T16:55:35.520Z,4.03
2019-02-09T16:58:04.723Z,5.03
2019-02-09T17:00:38.646Z,4.27
2019-02-09T17:03:08.798Z,3.87
2019-02-09T17:05:37.483Z,4.30
2019-02-09T17:08:06.647Z,3.63
2019-02-09T17:10:35.114Z,3.90
2019-02-09T17:13:03.701Z,4.07
2019-02-09T17:15:32.214Z,4.03
2019-02-09T17:18:00.600Z,3.77
2019-02-09T17:20:29.060Z,3.67
2019-02-09T17:22:57.524Z,3.73
2019-02-09T17:25:26.717Z,4.10
2019-02-09T17:27:55.140Z,4.47
2019-02-09T17:30:30.799Z,3.23
2019-02-09T17:32:59.247Z,2.87
2019-02-09T17:35:27.987Z,4.87
2019-02-09T17:37:56.420Z,4.53
2019-02-09T17:40:33.861Z,4.80
2019-02-09T17:43:02.252Z,4.10
2019-02-09T17:45:33.609Z,4.90
2019-02-09T17:48:02.252Z,4.43
2019-02-09T17:50:30.690Z,4.80
2019-02-09T17:53:00.339Z,4.73
2019-02-09T17:55:29.109Z,4.13
2019-02-09T17:57:57.641Z,3.77
2019-02-09T18:00:30.749Z,4.10
2019-02-09T18:02:59.188Z,3.93
2019-02-09T18:05:27.602Z,4.10
2019-02-09T18:07:56.276Z,4.30
2019-02-09T18:10:24.940Z,4.43
2019-02-09T18:12:53.369Z,4.33
2019-02-09T18:15:21.844Z,3.57
2019-02-09T18:17:50.236Z,3.50
2019-02-09T18:20:19.124Z,3.90
2019-02-09T18:22:47.553Z,4.23
2019-02-09T18:25:20.799Z,7.83
2019-02-09T18:27:49.309Z,4.93
2019-02-09T18:30:27.400Z,5.10
2019-02-09T18:32:55.828Z,5.40
2019-02-09T18:35:24.229Z,4.47
2019-02-09T18:37:52.651Z,4.10
2019-02-09T18:40:26.252Z,5.80
2019-02-09T18:42:54.837Z,5.37
2019-02-09T18:45:29.212Z,4.53
2019-02-09T18:47:57.696Z,4.43
2019-02-09T18:50:30.657Z,5.57
2019-02-09T18:53:00.293Z,7.07
2019-02-09T18:55:30.393Z,5.57
2019-02-09T18:57:58.817Z,4.63
2019-02-09T19:00:30.471Z,5.37
2019-02-09T19:02:59.208Z,3.70
2019-02-09T19:05:27.676Z,4.90
2019-02-09T19:07:56.205Z,4.50
2019-02-09T19:10:26.579Z,5.03
2019-02-09T19:12:55.167Z,4.77
2019-02-09T19:15:26.544Z,4.60
2019-02-09T19:17:55.728Z,5.10
2019-02-09T19:20:29.707Z,5.23
2019-02-09T19:22:58.255Z,5.20
2019-02-09T19:25:27.213Z,5.33
2019-02-09T19:27:55.935Z,6.57
2019-02-09T19:30:26.429Z,5.80
2019-02-09T19:32:56.575Z,4.70
2019-02-09T19:35:25.059Z,5.37
2019-02-09T19:37:54.112Z,4.60
2019-02-09T19:40:26.790Z,5.37
2019-02-09T19:42:55.194Z,4.50
2019-02-09T19:45:26.131Z,5.30
2019-02-09T19:47:54.697Z,5.73
2019-02-09T19:50:23.099Z,5.30
2019-02-09T19:52:51.537Z,5.47
2019-02-09T19:55:25.739Z,5.60
2019-02-09T19:57:54.345Z,5.20
2019-02-09T20:00:27.904Z,5.40
2019-02-09T20:02:56.420Z,5.30
2019-02-09T20:05:24.924Z,7.13
2019-02-09T20:07:53.348Z,6.47
2019-02-09T20:10:27.587Z,6.63
2019-02-09T20:12:56.059Z,9.30
2019-02-09T20:15:24.473Z,6.90
2019-02-09T20:17:52.877Z,4.97
2019-02-09T20:20:21.354Z,8.77
2019-02-09T20:22:49.759Z,4.90
2019-02-09T20:25:20.216Z,5.47
2019-02-09T20:27:50.599Z,4.60
2019-02-09T20:30:30.191Z,5.37
2019-02-09T20:32:58.632Z,4.67
2019-02-09T20:35:28.120Z,4.70
2019-02-09T20:37:57.003Z,4.73
2019-02-09T20:40:28.203Z,4.00
2019-02-09T20:43:01.831Z,4.17
2019-02-09T20:45:26.848Z,4.30
2019-02-09T20:47:55.353Z,5.43
2019-02-09T20:50:23.950Z,5.07
2019-02-09T20:52:52.405Z,3.87
2019-02-09T20:55:21.744Z,5.23
2019-02-09T20:57:50.198Z,4.57
2019-02-09T21:00:23.784Z,3.50
2019-02-09T21:02:52.504Z,5.17
2019-02-09T21:05:21.110Z,4.73
2019-02-09T21:07:49.513Z,4.90
2019-02-09T21:10:23.661Z,4.47
2019-02-09T21:12:52.315Z,4.83
2019-02-09T21:15:22.996Z,4.77
2019-02-09T21:17:51.632Z,4.37
2019-02-09T21:20:20.128Z,5.33
2019-02-09T21:22:48.663Z,5.10
2019-02-09T21:25:19.928Z,4.67
2019-02-09T21:27:48.384Z,4.90
2019-02-09T21:30:21.688Z,4.97
2019-02-09T21:32:50.172Z,4.30
2019-02-09T21:35:20.627Z,5.50
2019-02-09T21:37:49.797Z,4.03
2019-02-09T21:40:23.750Z,5.00
2019-02-09T21:42:53.982Z,4.90
2019-02-09T21:45:23.992Z,4.40
2019-02-09T21:47:53.036Z,4.53
2019-02-09T21:50:29.687Z,4.30
2019-02-09T21:52:58.471Z,4.03
2019-02-09T21:55:26.961Z,4.53
2019-02-09T21:57:55.432Z,4.40
2019-02-09T22:00:26.368Z,5.13
2019-02-09T22:02:55.480Z,5.43
2019-02-09T22:05:24.103Z,4.93
2019-02-09T22:07:52.532Z,5.27
2019-02-09T22:10:30.195Z,5.03
2019-02-09T22:12:56.874Z,5.53
2019-02-09T22:15:28.355Z,5.07
2019-02-09T22:17:59.423Z,4.80
2019-02-09T22:20:27.813Z,5.73
2019-02-09T22:22:56.364Z,5.13
2019-02-09T22:25:26.415Z,4.53
2019-02-09T22:27:55.088Z,4.97
2019-02-09T22:30:33.188Z,3.93
2019-02-09T22:33:01.933Z,4.40
2019-02-09T22:35:30.608Z,4.37
2019-02-09T22:37:59.739Z,4.50
2019-02-09T22:40:32.977Z,4.60
2019-02-09T22:43:01.590Z,4.27
2019-02-09T22:45:30.282Z,5.33
2019-02-09T22:47:59.014Z,4.63
2019-02-09T22:50:32.520Z,5.57
2019-02-09T22:53:01.156Z,4.80
2019-02-09T22:55:29.814Z,5.07
2019-02-09T22:57:58.282Z,4.47
2019-02-09T23:00:53.457Z,4.87
2019-02-09T23:03:27.751Z,5.00
2019-02-09T23:06:14.270Z,4.57
2019-02-09T23:08:48.725Z,4.30
2019-02-09T23:11:17.367Z,4.70
2019-02-09T23:13:45.803Z,4.80
2019-02-09T23:16:14.201Z,4.80
2019-02-09T23:18:42.624Z,5.50
2019-02-09T23:21:11.300Z,5.23
2019-02-09T23:23:39.731Z,4.70
2019-02-09T23:26:08.219Z,5.20
2019-02-09T23:28:36.656Z,4.90
2019-02-09T23:31:05.099Z,4.80
2019-02-09T23:33:33.772Z,4.63
2019-02-09T23:36:06.858Z,5.20
2019-02-09T23:38:35.551Z,5.10
2019-02-09T23:41:03.948Z,5.50
2019-02-09T23:43:32.394Z,5.37
2019-02-09T23:46:00.861Z,5.50
2019-02-09T23:48:29.424Z,4.67
2019-02-09T23:50:57.840Z,5.17
2019-02-09T23:53:26.563Z,4.37
2019-02-09T23:55:56.054Z,4.90
2019-02-09T23:58:24.421Z,4.40
